Time,TemperatureF,DewpointF,PressureIn,WindDirection,WindDirectionDegrees,WindSpeedMPH,WindSpeedGustMPH,Humidity,HourlyPrecipIn,Conditions,Clouds,dailyrainin,SoftwareType,DateUTC
2013-06-11 00:01:00,59.0,59.0,30.08,SE,127,0.0,1.0,100,0.19,,,0.00,WUHU216DAVISWMX,2013-06-11 04:01:00,
2013-06-11 00:06:00,59.0,59.0,30.08,SE,127,0.0,0.0,100,0.16,,,0.00,WUHU216DAVISWMX,2013-06-11 04:06:00,
2013-06-11 00:11:00,58.8,58.8,30.08,SE,127,0.0,0.0,100,0.15,,,0.01,WUHU216DAVISWMX,2013-06-11 04:11:00,
2013-06-11 00:16:00,58.8,58.8,30.08,SE,127,0.0,0.0,100,0.14,,,0.01,WUHU216DAVISWMX,2013-06-11 04:16:00,
2013-06-11 00:21:00,58.8,58.8,30.08,SE,127,0.0,1.0,100,0.11,,,0.01,WUHU216DAVISWMX,2013-06-11 04:21:00,
2013-06-11 00:26:00,58.7,58.7,30.08,SE,127,0.0,2.0,100,0.09,,,0.01,WUHU216DAVISWMX,2013-06-11 04:26:00,
2013-06-11 00:32:00,58.5,58.5,30.07,SE,142,0.0,2.0,100,0.08,,,0.01,WUHU216DAVISWMX,2013-06-11 04:32:00,
2013-06-11 00:37:00,58.5,58.5,30.07,SSE,148,0.0,2.0,100,0.08,,,0.01,WUHU216DAVISWMX,2013-06-11 04:37:00,
2013-06-11 00:42:00,58.4,58.4,30.06,SSE,148,0.0,2.0,100,0.08,,,0.02,WUHU216DAVISWMX,2013-06-11 04:42:00,
2013-06-11 00:47:00,58.4,58.4,30.05,SSE,156,0.0,1.0,100,0.08,,,0.03,WUHU216DAVISWMX,2013-06-11 04:47:00,
2013-06-11 00:52:00,58.3,58.3,30.05,ESE,122,0.0,2.0,100,0.06,,,0.04,WUHU216DAVISWMX,2013-06-11 04:52:00,
2013-06-11 00:57:00,58.1,58.1,30.05,ENE,77,0.0,2.0,100,0.04,,,0.04,WUHU216DAVISWMX,2013-06-11 04:57:00,
2013-06-11 01:02:00,58.2,58.2,30.04,ENE,77,0.0,2.0,100,0.05,,,0.05,WUHU216DAVISWMX,2013-06-11 05:02:00,
2013-06-11 01:07:00,58.1,58.1,30.04,NE,43,0.0,3.0,100,0.04,,,0.05,WUHU216DAVISWMX,2013-06-11 05:07:00,
2013-06-11 01:12:00,58.1,58.1,30.04,ESE,117,0.0,3.0,100,0.04,,,0.05,WUHU216DAVISWMX,2013-06-11 05:12:00,
2013-06-11 01:17:00,58.0,58.0,30.04,ENE,77,3.0,3.0,100,0.05,,,0.06,WUHU216DAVISWMX,2013-06-11 05:17:00,
2013-06-11 01:22:00,58.0,58.0,30.03,South,187,0.0,3.0,100,0.06,,,0.07,WUHU216DAVISWMX,2013-06-11 05:22:00,
2013-06-11 01:27:00,57.9,57.9,30.03,SE,137,0.0,4.0,100,0.07,,,0.08,WUHU216DAVISWMX,2013-06-11 05:27:00,
2013-06-11 01:32:00,57.9,57.9,30.03,SE,129,1.0,4.0,100,0.09,,,0.10,WUHU216DAVISWMX,2013-06-11 05:32:00,
2013-06-11 01:37:00,57.8,57.8,30.02,SSE,150,0.0,2.0,100,0.11,,,0.12,WUHU216DAVISWMX,2013-06-11 05:37:00,
2013-06-11 01:42:00,57.8,57.8,30.02,ESE,102,0.0,2.0,100,0.14,,,0.16,WUHU216DAVISWMX,2013-06-11 05:42:00,
2013-06-11 01:47:00,57.8,57.8,30.02,ESE,102,0.0,1.0,100,0.14,,,0.17,WUHU216DAVISWMX,2013-06-11 05:47:00,
2013-06-11 01:52:00,57.8,57.8,30.02,SSE,151,0.0,3.0,100,0.14,,,0.18,WUHU216DAVISWMX,2013-06-11 05:52:00,
2013-06-11 01:57:00,57.7,57.7,30.02,ESE,121,0.0,3.0,100,0.14,,,0.18,WUHU216DAVISWMX,2013-06-11 05:57:00,
2013-06-11 02:02:00,57.6,57.6,30.01,South,175,1.0,4.0,100,0.15,,,0.20,WUHU216DAVISWMX,2013-06-11 06:02:00,
2013-06-11 02:07:00,57.6,57.6,30.01,ENE,70,0.0,4.0,100,0.17,,,0.22,WUHU216DAVISWMX,2013-06-11 06:07:00,
2013-06-11 02:12:00,57.7,57.7,30.01,ESE,103,0.0,1.0,100,0.18,,,0.23,WUHU216DAVISWMX,2013-06-11 06:12:00,
2013-06-11 02:17:00,57.7,57.7,30.00,ESE,102,0.0,1.0,100,0.18,,,0.24,WUHU216DAVISWMX,2013-06-11 06:17:00,
2013-06-11 02:22:00,57.6,57.6,30.00,ESE,102,0.0,1.0,100,0.18,,,0.25,WUHU216DAVISWMX,2013-06-11 06:22:00,
2013-06-11 02:27:00,57.5,57.5,30.00,East,101,0.0,1.0,100,0.17,,,0.25,WUHU216DAVISWMX,2013-06-11 06:27:00,
2013-06-11 02:32:00,57.5,57.5,29.99,ESE,102,0.0,2.0,100,0.16,,,0.26,WUHU216DAVISWMX,2013-06-11 06:32:00,
2013-06-11 02:37:00,57.5,57.5,29.99,WSW,245,0.0,3.0,100,0.13,,,0.26,WUHU216DAVISWMX,2013-06-11 06:37:00,
2013-06-11 02:42:00,57.4,57.4,29.99,SSW,213,0.0,3.0,100,0.11,,,0.27,WUHU216DAVISWMX,2013-06-11 06:42:00,
2013-06-11 02:47:00,57.5,57.5,29.99,SSW,212,0.0,1.0,100,0.10,,,0.27,WUHU216DAVISWMX,2013-06-11 06:47:00,
2013-06-11 02:52:00,57.5,57.5,29.99,SSW,213,0.0,1.0,100,0.10,,,0.28,WUHU216DAVISWMX,2013-06-11 06:52:00,
2013-06-11 02:57:00,57.3,57.3,29.98,SSW,212,0.0,1.0,100,0.10,,,0.28,WUHU216DAVISWMX,2013-06-11 06:57:00,
2013-06-11 03:02:00,57.3,57.3,29.98,East,100,1.0,3.0,100,0.09,,,0.29,WUHU216DAVISWMX,2013-06-11 07:02:00,
2013-06-11 03:07:00,57.2,57.2,29.98,South,170,0.0,5.0,100,0.07,,,0.29,WUHU216DAVISWMX,2013-06-11 07:07:00,
2013-06-11 03:12:00,57.2,57.2,29.98,East,101,0.0,5.0,100,0.08,,,0.31,WUHU216DAVISWMX,2013-06-11 07:12:00,
2013-06-11 03:17:00,57.1,57.1,29.98,South,186,0.0,2.0,100,0.08,,,0.32,WUHU216DAVISWMX,2013-06-11 07:17:00,
2013-06-11 03:22:00,57.1,57.1,29.98,South,186,0.0,2.0,100,0.08,,,0.33,WUHU216DAVISWMX,2013-06-11 07:22:00,
2013-06-11 03:27:00,56.9,56.9,29.97,SSE,168,0.0,3.0,100,0.10,,,0.35,WUHU216DAVISWMX,2013-06-11 07:27:00,
2013-06-11 03:32:00,56.9,56.9,29.97,ESE,107,0.0,4.0,100,0.11,,,0.37,WUHU216DAVISWMX,2013-06-11 07:32:00,
2013-06-11 03:37:00,56.8,56.8,29.97,ENE,65,0.0,4.0,100,0.12,,,0.38,WUHU216DAVISWMX,2013-06-11 07:37:00,
2013-06-11 03:42:00,56.8,56.8,29.97,ENE,65,0.0,2.0,100,0.12,,,0.39,WUHU216DAVISWMX,2013-06-11 07:42:00,
2013-06-11 03:47:00,56.8,56.8,29.96,NE,37,2.0,3.0,100,0.13,,,0.40,WUHU216DAVISWMX,2013-06-11 07:47:00,
2013-06-11 03:52:00,56.7,56.7,29.96,NNE,28,0.0,3.0,100,0.13,,,0.41,WUHU216DAVISWMX,2013-06-11 07:52:00,
2013-06-11 03:57:00,56.6,56.6,29.95,NNE,28,0.0,1.0,100,0.16,,,0.44,WUHU216DAVISWMX,2013-06-11 07:57:00,
2013-06-11 04:02:00,56.6,56.6,29.95,NE,55,0.0,2.0,100,0.16,,,0.45,WUHU216DAVISWMX,2013-06-11 08:02:00,
2013-06-11 04:07:00,56.6,56.6,29.95,NE,55,0.0,2.0,100,0.17,,,0.46,WUHU216DAVISWMX,2013-06-11 08:07:00,
2013-06-11 04:12:00,56.6,56.6,29.94,NE,55,0.0,0.0,100,0.17,,,0.48,WUHU216DAVISWMX,2013-06-11 08:12:00,
2013-06-11 04:17:00,56.5,56.5,29.94,NE,55,0.0,0.0,100,0.16,,,0.48,WUHU216DAVISWMX,2013-06-11 08:17:00,
2013-06-11 04:22:00,56.6,56.6,29.94,NE,54,0.0,0.0,100,0.16,,,0.49,WUHU216DAVISWMX,2013-06-11 08:22:00,
2013-06-11 04:27:00,56.4,56.4,29.93,NE,55,0.0,0.0,100,0.15,,,0.50,WUHU216DAVISWMX,2013-06-11 08:27:00,
2013-06-11 04:32:00,56.5,56.5,29.93,NE,55,0.0,1.0,100,0.13,,,0.50,WUHU216DAVISWMX,2013-06-11 08:32:00,
2013-06-11 04:37:00,56.3,56.3,29.93,NE,55,0.0,2.0,100,0.14,,,0.52,WUHU216DAVISWMX,2013-06-11 08:37:00,
2013-06-11 04:42:00,56.3,56.3,29.93,ESE,112,0.0,2.0,100,0.13,,,0.52,WUHU216DAVISWMX,2013-06-11 08:42:00,
2013-06-11 04:47:00,56.3,56.3,29.93,ESE,112,0.0,1.0,100,0.14,,,0.54,WUHU216DAVISWMX,2013-06-11 08:47:00,
2013-06-11 04:52:00,56.2,56.2,29.93,ESE,112,0.0,0.0,100,0.13,,,0.54,WUHU216DAVISWMX,2013-06-11 08:52:00,
2013-06-11 04:57:00,56.2,56.2,29.93,ESE,112,0.0,0.0,100,0.11,,,0.55,WUHU216DAVISWMX,2013-06-11 08:57:00,
2013-06-11 05:02:00,56.2,56.2,29.93,ESE,112,0.0,0.0,100,0.12,,,0.58,WUHU216DAVISWMX,2013-06-11 09:02:00,
2013-06-11 05:07:00,56.2,56.2,29.92,NE,53,0.0,2.0,100,0.11,,,0.58,WUHU216DAVISWMX,2013-06-11 09:07:00,
2013-06-11 05:12:00,56.1,56.1,29.92,NE,53,0.0,2.0,100,0.11,,,0.59,WUHU216DAVISWMX,2013-06-11 09:12:00,
2013-06-11 05:17:00,56.1,56.1,29.92,NE,53,0.0,0.0,100,0.10,,,0.59,WUHU216DAVISWMX,2013-06-11 09:17:00,
2013-06-11 05:22:00,56.1,56.1,29.92,NE,53,0.0,1.0,100,0.10,,,0.59,WUHU216DAVISWMX,2013-06-11 09:22:00,
2013-06-11 05:27:00,56.1,56.1,29.92,NE,53,0.0,1.0,100,0.09,,,0.59,WUHU216DAVISWMX,2013-06-11 09:27:00,
2013-06-11 05:32:00,56.1,56.1,29.92,NE,53,0.0,0.0,100,0.09,,,0.59,WUHU216DAVISWMX,2013-06-11 09:32:00,
2013-06-11 05:37:00,55.9,55.9,29.92,NE,53,0.0,0.0,100,0.07,,,0.59,WUHU216DAVISWMX,2013-06-11 09:37:00,
2013-06-11 05:42:00,55.9,55.9,29.91,NE,53,0.0,1.0,100,0.08,,,0.60,WUHU216DAVISWMX,2013-06-11 09:42:00,
2013-06-11 05:47:00,55.9,55.9,29.91,NE,53,0.0,1.0,100,0.06,,,0.60,WUHU216DAVISWMX,2013-06-11 09:47:00,
2013-06-11 05:52:00,55.9,55.9,29.91,NE,53,0.0,1.0,100,0.07,,,0.61,WUHU216DAVISWMX,2013-06-11 09:52:00,
2013-06-11 05:57:00,55.7,55.7,29.91,NE,53,0.0,1.0,100,0.06,,,0.61,WUHU216DAVISWMX,2013-06-11 09:57:00,
2013-06-11 06:02:00,55.9,55.9,29.91,NE,53,0.0,1.0,100,0.03,,,0.61,WUHU216DAVISWMX,2013-06-11 10:02:00,
2013-06-11 06:07:00,55.8,55.8,29.91,NE,53,0.0,0.0,100,0.04,,,0.62,WUHU216DAVISWMX,2013-06-11 10:07:00,
2013-06-11 06:12:00,55.7,55.7,29.90,NE,53,0.0,0.0,100,0.03,,,0.62,WUHU216DAVISWMX,2013-06-11 10:12:00,
2013-06-11 06:17:00,55.8,55.8,29.90,NE,53,1.0,1.0,100,0.04,,,0.63,WUHU216DAVISWMX,2013-06-11 10:17:00,
2013-06-11 06:22:00,55.6,55.6,29.90,North,0,0.0,1.0,100,0.04,,,0.63,WUHU216DAVISWMX,2013-06-11 10:22:00,
2013-06-11 06:27:00,55.6,55.6,29.89,East,84,0.0,1.0,100,0.04,,,0.63,WUHU216DAVISWMX,2013-06-11 10:27:00,
2013-06-11 06:32:00,55.6,55.6,29.88,East,85,0.0,1.0,100,0.05,,,0.64,WUHU216DAVISWMX,2013-06-11 10:32:00,
2013-06-11 06:37:00,55.5,55.5,29.88,East,85,0.0,0.0,100,0.05,,,0.64,WUHU216DAVISWMX,2013-06-11 10:37:00,
2013-06-11 06:43:00,55.5,55.5,29.87,ENE,73,0.0,2.0,100,0.04,,,0.64,WUHU216DAVISWMX,2013-06-11 10:43:00,
2013-06-11 06:48:00,55.6,55.6,29.88,ESE,103,0.0,5.0,100,0.04,,,0.64,WUHU216DAVISWMX,2013-06-11 10:48:00,
2013-06-11 06:53:00,55.5,55.5,29.87,ESE,102,0.0,5.0,100,0.03,,,0.64,WUHU216DAVISWMX,2013-06-11 10:53:00,
2013-06-11 06:58:00,55.3,55.3,29.87,ESE,102,0.0,0.0,100,0.03,,,0.64,WUHU216DAVISWMX,2013-06-11 10:58:00,
2013-06-11 07:03:00,55.4,55.4,29.87,ESE,103,0.0,0.0,100,0.04,,,0.65,WUHU216DAVISWMX,2013-06-11 11:03:00,
2013-06-11 07:08:00,55.3,55.3,29.87,ESE,102,0.0,0.0,100,0.03,,,0.65,WUHU216DAVISWMX,2013-06-11 11:08:00,
2013-06-11 07:13:00,55.3,55.3,29.87,ESE,103,0.0,1.0,100,0.03,,,0.65,WUHU216DAVISWMX,2013-06-11 11:13:00,
2013-06-11 07:18:00,55.2,55.2,29.87,ESE,102,0.0,1.0,100,0.02,,,0.65,WUHU216DAVISWMX,2013-06-11 11:18:00,
2013-06-11 07:23:00,55.1,55.1,29.87,ESE,103,1.0,1.0,100,0.03,,,0.66,WUHU216DAVISWMX,2013-06-11 11:23:00,
2013-06-11 07:28:00,55.1,55.1,29.86,North,0,0.0,1.0,100,0.03,,,0.66,WUHU216DAVISWMX,2013-06-11 11:28:00,
2013-06-11 07:33:00,55.0,55.0,29.86,North,0,0.0,1.0,100,0.03,,,0.67,WUHU216DAVISWMX,2013-06-11 11:33:00,
2013-06-11 07:38:00,55.1,55.1,29.86,ESE,107,1.0,1.0,100,0.03,,,0.67,WUHU216DAVISWMX,2013-06-11 11:38:00,
2013-06-11 07:43:00,55.2,55.2,29.86,ENE,75,0.0,1.0,100,0.03,,,0.67,WUHU216DAVISWMX,2013-06-11 11:43:00,
2013-06-11 07:48:00,55.2,55.2,29.86,ENE,75,0.0,1.0,100,0.03,,,0.67,WUHU216DAVISWMX,2013-06-11 11:48:00,
2013-06-11 07:53:00,55.1,55.1,29.85,ENE,75,0.0,1.0,100,0.04,,,0.68,WUHU216DAVISWMX,2013-06-11 11:53:00,
2013-06-11 07:58:00,55.1,55.1,29.85,ENE,75,0.0,1.0,100,0.04,,,0.68,WUHU216DAVISWMX,2013-06-11 11:58:00,
2013-06-11 08:03:00,55.1,55.1,29.85,ENE,75,0.0,1.0,100,0.03,,,0.68,WUHU216DAVISWMX,2013-06-11 12:03:00,
2013-06-11 08:08:00,54.9,54.9,29.85,North,0,0.0,2.0,100,0.03,,,0.68,WUHU216DAVISWMX,2013-06-11 12:08:00,
2013-06-11 08:13:00,55.0,55.0,29.85,North,0,0.0,2.0,100,0.03,,,0.68,WUHU216DAVISWMX,2013-06-11 12:13:00,
2013-06-11 08:18:00,55.0,55.0,29.85,North,0,0.0,1.0,100,0.03,,,0.68,WUHU216DAVISWMX,2013-06-11 12:18:00,
2013-06-11 08:23:00,54.9,54.9,29.84,North,0,0.0,1.0,100,0.02,,,0.68,WUHU216DAVISWMX,2013-06-11 12:23:00,
2013-06-11 08:28:00,55.0,55.0,29.84,North,0,0.0,0.0,100,0.02,,,0.68,WUHU216DAVISWMX,2013-06-11 12:28:00,
2013-06-11 08:33:00,55.2,55.2,29.84,North,0,0.0,0.0,100,0.01,,,0.68,WUHU216DAVISWMX,2013-06-11 12:33:00,
2013-06-11 08:38:00,55.1,55.1,29.84,North,0,0.0,0.0,100,0.01,,,0.68,WUHU216DAVISWMX,2013-06-11 12:38:00,
2013-06-11 08:43:00,55.2,55.2,29.84,North,0,0.0,0.0,100,0.02,,,0.69,WUHU216DAVISWMX,2013-06-11 12:43:00,
2013-06-11 08:48:00,55.2,55.2,29.85,North,0,0.0,2.0,100,0.02,,,0.69,WUHU216DAVISWMX,2013-06-11 12:48:00,
2013-06-11 08:53:00,55.1,55.1,29.84,NE,39,0.0,2.0,100,0.01,,,0.69,WUHU216DAVISWMX,2013-06-11 12:53:00,
2013-06-11 08:58:00,55.0,55.0,29.84,NE,40,0.0,1.0,100,0.01,,,0.69,WUHU216DAVISWMX,2013-06-11 12:58:00,
2013-06-11 09:03:00,55.1,55.1,29.83,NE,40,0.0,0.0,100,0.01,,,0.69,WUHU216DAVISWMX,2013-06-11 13:03:00,
2013-06-11 09:08:00,55.2,55.2,29.83,NE,40,0.0,0.0,100,0.01,,,0.69,WUHU216DAVISWMX,2013-06-11 13:08:00,
2013-06-11 09:13:00,55.4,55.4,29.83,NNE,32,0.0,0.0,100,0.02,,,0.70,WUHU216DAVISWMX,2013-06-11 13:13:00,
2013-06-11 09:18:00,55.3,55.3,29.83,NNE,32,1.0,1.0,100,0.02,,,0.70,WUHU216DAVISWMX,2013-06-11 13:18:00,
2013-06-11 09:23:00,55.5,55.5,29.83,North,7,0.0,2.0,100,0.02,,,0.70,WUHU216DAVISWMX,2013-06-11 13:23:00,
2013-06-11 09:28:00,55.7,55.7,29.82,North,7,0.0,2.0,100,0.02,,,0.70,WUHU216DAVISWMX,2013-06-11 13:28:00,
2013-06-11 09:33:00,55.7,55.7,29.82,North,7,0.0,1.0,100,0.02,,,0.70,WUHU216DAVISWMX,2013-06-11 13:33:00,
2013-06-11 09:38:00,55.9,55.9,29.82,NW,322,0.0,2.0,100,0.02,,,0.70,WUHU216DAVISWMX,2013-06-11 13:38:00,
2013-06-11 09:43:00,56.0,56.0,29.82,NW,322,0.0,2.0,100,0.01,,,0.70,WUHU216DAVISWMX,2013-06-11 13:43:00,
2013-06-11 09:48:00,56.1,56.1,29.82,NW,322,0.0,2.0,100,0.01,,,0.70,WUHU216DAVISWMX,2013-06-11 13:48:00,
2013-06-11 09:53:00,56.0,56.0,29.82,NW,322,0.0,2.0,100,0.01,,,0.70,WUHU216DAVISWMX,2013-06-11 13:53:00,
2013-06-11 09:58:00,56.0,56.0,29.82,NW,322,0.0,2.0,100,0.01,,,0.70,WUHU216DAVISWMX,2013-06-11 13:58:00,
2013-06-11 10:03:00,56.0,56.0,29.82,NW,322,1.0,1.0,100,0.01,,,0.70,WUHU216DAVISWMX,2013-06-11 14:03:00,
2013-06-11 10:08:00,56.0,56.0,29.81,NW,322,0.0,1.0,100,0.01,,,0.70,WUHU216DAVISWMX,2013-06-11 14:08:00,
2013-06-11 10:13:00,56.0,56.0,29.81,NW,322,0.0,1.0,100,0.00,,,0.70,WUHU216DAVISWMX,2013-06-11 14:13:00,
2013-06-11 10:18:00,56.2,56.2,29.81,NW,322,0.0,0.0,100,0.00,,,0.70,WUHU216DAVISWMX,2013-06-11 14:18:00,
2013-06-11 10:23:00,56.2,56.2,29.81,NW,322,0.0,2.0,100,0.00,,,0.70,WUHU216DAVISWMX,2013-06-11 14:23:00,
2013-06-11 10:28:00,56.3,56.3,29.81,NW,322,0.0,2.0,100,0.00,,,0.70,WUHU216DAVISWMX,2013-06-11 14:28:00,
2013-06-11 10:33:00,56.4,56.4,29.81,NW,322,0.0,1.0,100,0.00,,,0.70,WUHU216DAVISWMX,2013-06-11 14:33:00,
2013-06-11 10:38:00,56.5,56.5,29.81,NW,322,1.0,1.0,100,0.00,,,0.70,WUHU216DAVISWMX,2013-06-11 14:38:00,
2013-06-11 10:43:00,56.6,56.6,29.81,NNE,31,0.0,2.0,100,0.00,,,0.70,WUHU216DAVISWMX,2013-06-11 14:43:00,
2013-06-11 10:48:00,56.6,56.6,29.81,NNE,31,0.0,2.0,100,0.00,,,0.70,WUHU216DAVISWMX,2013-06-11 14:48:00,
2013-06-11 10:53:00,56.9,56.9,29.81,NNE,31,0.0,1.0,100,0.00,,,0.70,WUHU216DAVISWMX,2013-06-11 14:53:00,
2013-06-11 10:58:00,57.0,57.0,29.81,NNE,31,0.0,1.0,100,0.00,,,0.70,WUHU216DAVISWMX,2013-06-11 14:58:00,
2013-06-11 11:03:00,57.1,57.1,29.81,NNE,31,0.0,0.0,100,0.00,,,0.70,WUHU216DAVISWMX,2013-06-11 15:03:00,
2013-06-11 11:08:00,57.2,57.2,29.80,NNE,31,0.0,0.0,100,0.00,,,0.70,WUHU216DAVISWMX,2013-06-11 15:08:00,
2013-06-11 11:13:00,57.1,57.1,29.80,ENE,78,0.0,2.0,100,0.00,,,0.70,WUHU216DAVISWMX,2013-06-11 15:13:00,
2013-06-11 11:18:00,57.3,57.3,29.80,WSW,257,0.0,2.0,100,0.00,,,0.70,WUHU216DAVISWMX,2013-06-11 15:18:00,
2013-06-11 11:23:00,57.3,57.3,29.80,WSW,256,0.0,2.0,100,0.00,,,0.70,WUHU216DAVISWMX,2013-06-11 15:23:00,
2013-06-11 11:28:00,57.4,57.4,29.80,WSW,257,0.0,0.0,100,0.00,,,0.70,WUHU216DAVISWMX,2013-06-11 15:28:00,
2013-06-11 11:33:00,57.5,57.5,29.80,WSW,257,0.0,0.0,100,0.00,,,0.70,WUHU216DAVISWMX,2013-06-11 15:33:00,
2013-06-11 11:38:00,57.6,57.6,29.80,WSW,256,0.0,0.0,100,0.00,,,0.70,WUHU216DAVISWMX,2013-06-11 15:38:00,
2013-06-11 11:43:00,57.6,57.6,29.80,WSW,258,0.0,0.0,100,0.00,,,0.70,WUHU216DAVISWMX,2013-06-11 15:43:00,
2013-06-11 11:48:00,57.7,57.7,29.80,WSW,258,0.0,0.0,100,0.00,,,0.70,WUHU216DAVISWMX,2013-06-11 15:48:00,
2013-06-11 11:53:00,57.6,57.6,29.80,WSW,258,0.0,1.0,100,0.00,,,0.70,WUHU216DAVISWMX,2013-06-11 15:53:00,
2013-06-11 11:58:00,57.6,57.6,29.80,WSW,258,0.0,2.0,100,0.00,,,0.70,WUHU216DAVISWMX,2013-06-11 15:58:00,
2013-06-11 12:03:00,57.6,57.6,29.80,WSW,258,0.0,2.0,100,0.00,,,0.70,WUHU216DAVISWMX,2013-06-11 16:03:00,
2013-06-11 12:08:00,57.7,57.7,29.80,WSW,258,0.0,1.0,100,0.00,,,0.70,WUHU216DAVISWMX,2013-06-11 16:08:00,
2013-06-11 12:13:00,57.8,57.8,29.79,WSW,258,0.0,1.0,100,0.00,,,0.70,WUHU216DAVISWMX,2013-06-11 16:13:00,
2013-06-11 12:18:00,57.7,57.7,29.79,North,1,1.0,2.0,100,0.00,,,0.70,WUHU216DAVISWMX,2013-06-11 16:18:00,
2013-06-11 12:23:00,57.8,57.8,29.79,North,4,0.0,2.0,100,0.00,,,0.70,WUHU216DAVISWMX,2013-06-11 16:23:00,
2013-06-11 12:28:00,57.9,57.9,29.79,North,4,0.0,1.0,100,0.00,,,0.70,WUHU216DAVISWMX,2013-06-11 16:28:00,
2013-06-11 12:33:00,58.4,58.4,29.79,North,4,0.0,0.0,100,0.00,,,0.70,WUHU216DAVISWMX,2013-06-11 16:33:00,
2013-06-11 12:38:00,58.6,58.6,29.79,North,4,0.0,0.0,100,0.00,,,0.70,WUHU216DAVISWMX,2013-06-11 16:38:00,
2013-06-11 12:43:00,58.7,58.7,29.79,North,0,0.0,2.0,100,0.00,,,0.70,WUHU216DAVISWMX,2013-06-11 16:43:00,
2013-06-11 12:48:00,58.6,58.6,29.79,North,1,0.0,2.0,100,0.00,,,0.70,WUHU216DAVISWMX,2013-06-11 16:48:00,
2013-06-11 12:53:00,58.5,58.5,29.79,North,1,0.0,2.0,100,0.00,,,0.70,WUHU216DAVISWMX,2013-06-11 16:53:00,
2013-06-11 12:58:00,58.5,58.5,29.79,NW,322,1.0,3.0,100,0.00,,,0.70,WUHU216DAVISWMX,2013-06-11 16:58:00,
2013-06-11 13:03:00,58.5,58.5,29.79,NW,322,0.0,3.0,100,0.00,,,0.70,WUHU216DAVISWMX,2013-06-11 17:03:00,
2013-06-11 13:08:00,58.4,58.4,29.79,NW,322,0.0,1.0,100,0.00,,,0.70,WUHU216DAVISWMX,2013-06-11 17:08:00,
2013-06-11 13:13:00,58.4,58.4,29.79,NW,322,0.0,1.0,100,0.00,,,0.70,WUHU216DAVISWMX,2013-06-11 17:13:00,
2013-06-11 13:18:00,58.4,58.4,29.79,NW,322,0.0,2.0,100,0.00,,,0.70,WUHU216DAVISWMX,2013-06-11 17:18:00,
2013-06-11 13:23:00,58.6,58.6,29.79,NW,322,0.0,2.0,100,0.00,,,0.70,WUHU216DAVISWMX,2013-06-11 17:23:00,
2013-06-11 13:28:00,58.6,58.6,29.78,NW,322,0.0,2.0,100,0.00,,,0.70,WUHU216DAVISWMX,2013-06-11 17:28:00,
2013-06-11 13:33:00,58.7,58.7,29.78,NW,322,0.0,1.0,100,0.00,,,0.70,WUHU216DAVISWMX,2013-06-11 17:33:00,
2013-06-11 13:38:00,58.8,58.8,29.78,NW,322,0.0,1.0,100,0.00,,,0.70,WUHU216DAVISWMX,2013-06-11 17:38:00,
2013-06-11 13:43:00,59.0,59.0,29.78,NW,322,0.0,0.0,100,0.00,,,0.70,WUHU216DAVISWMX,2013-06-11 17:43:00,
2013-06-11 13:48:00,59.4,59.4,29.77,NW,322,0.0,0.0,100,0.00,,,0.70,WUHU216DAVISWMX,2013-06-11 17:48:00,
2013-06-11 13:53:00,59.6,59.6,29.77,ESE,103,1.0,2.0,100,0.00,,,0.70,WUHU216DAVISWMX,2013-06-11 17:53:00,
2013-06-11 13:58:00,59.7,59.7,29.77,East,83,0.0,3.0,100,0.00,,,0.70,WUHU216DAVISWMX,2013-06-11 17:58:00,
2013-06-11 14:03:00,59.6,59.6,29.76,East,83,0.0,3.0,100,0.00,,,0.70,WUHU216DAVISWMX,2013-06-11 18:03:00,
2013-06-11 14:08:00,59.7,59.7,29.76,East,84,0.0,1.0,100,0.00,,,0.70,WUHU216DAVISWMX,2013-06-11 18:08:00,
2013-06-11 14:13:00,59.7,59.7,29.76,East,83,0.0,1.0,100,0.00,,,0.70,WUHU216DAVISWMX,2013-06-11 18:13:00,
2013-06-11 14:18:00,59.7,59.7,29.76,East,84,0.0,1.0,100,0.00,,,0.70,WUHU216DAVISWMX,2013-06-11 18:18:00,
2013-06-11 14:23:00,59.6,59.6,29.76,East,84,0.0,1.0,100,0.00,,,0.70,WUHU216DAVISWMX,2013-06-11 18:23:00,
2013-06-11 14:28:00,59.8,59.8,29.75,East,84,0.0,1.0,100,0.00,,,0.70,WUHU216DAVISWMX,2013-06-11 18:28:00,
2013-06-11 14:33:00,60.0,60.0,29.75,ENE,61,0.0,2.0,100,0.00,,,0.70,WUHU216DAVISWMX,2013-06-11 18:33:00,
2013-06-11 14:38:00,60.3,60.3,29.75,ENE,61,0.0,2.0,100,0.00,,,0.70,WUHU216DAVISWMX,2013-06-11 18:38:00,
2013-06-11 14:43:00,60.4,60.4,29.75,ENE,61,0.0,1.0,100,0.00,,,0.70,WUHU216DAVISWMX,2013-06-11 18:43:00,
2013-06-11 14:48:00,60.4,60.4,29.75,ENE,61,0.0,0.0,100,0.00,,,0.70,WUHU216DAVISWMX,2013-06-11 18:48:00,
2013-06-11 14:53:00,60.3,60.3,29.75,ENE,61,0.0,1.0,100,0.00,,,0.70,WUHU216DAVISWMX,2013-06-11 18:53:00,
2013-06-11 14:58:00,60.4,60.4,29.75,ENE,65,0.0,1.0,100,0.00,,,0.70,WUHU216DAVISWMX,2013-06-11 18:58:00,
2013-06-11 15:03:00,60.4,60.4,29.75,ENE,65,0.0,1.0,100,0.00,,,0.70,WUHU216DAVISWMX,2013-06-11 19:03:00,
2013-06-11 15:08:00,60.4,60.4,29.75,ENE,69,0.0,1.0,100,0.00,,,0.70,WUHU216DAVISWMX,2013-06-11 19:08:00,
2013-06-11 15:13:00,60.6,60.6,29.75,ENE,69,0.0,1.0,100,0.00,,,0.70,WUHU216DAVISWMX,2013-06-11 19:13:00,
2013-06-11 15:18:00,60.5,60.5,29.74,ENE,69,0.0,0.0,100,0.00,,,0.70,WUHU216DAVISWMX,2013-06-11 19:18:00,
2013-06-11 15:23:00,60.3,60.3,29.74,ENE,69,0.0,0.0,100,0.00,,,0.70,WUHU216DAVISWMX,2013-06-11 19:23:00,
2013-06-11 15:28:00,60.2,60.2,29.74,ENE,69,0.0,0.0,100,0.00,,,0.70,WUHU216DAVISWMX,2013-06-11 19:28:00,
2013-06-11 15:33:00,60.0,60.0,29.74,ENE,69,0.0,0.0,100,0.00,,,0.70,WUHU216DAVISWMX,2013-06-11 19:33:00,
2013-06-11 15:38:00,60.1,60.1,29.74,ENE,69,0.0,0.0,100,0.00,,,0.70,WUHU216DAVISWMX,2013-06-11 19:38:00,
2013-06-11 15:43:00,60.0,60.0,29.74,ENE,69,0.0,0.0,100,0.00,,,0.70,WUHU216DAVISWMX,2013-06-11 19:43:00,
2013-06-11 15:48:00,60.0,60.0,29.74,ENE,69,0.0,0.0,100,0.00,,,0.70,WUHU216DAVISWMX,2013-06-11 19:48:00,
2013-06-11 15:53:00,60.1,60.1,29.73,ENE,69,0.0,0.0,100,0.00,,,0.70,WUHU216DAVISWMX,2013-06-11 19:53:00,
2013-06-11 15:58:00,60.2,60.2,29.73,ENE,69,0.0,1.0,100,0.00,,,0.70,WUHU216DAVISWMX,2013-06-11 19:58:00,
2013-06-11 16:03:00,60.3,60.3,29.72,ENE,69,1.0,1.0,100,0.00,,,0.70,WUHU216DAVISWMX,2013-06-11 20:03:00,
2013-06-11 16:08:00,60.4,60.4,29.72,ENE,69,0.0,1.0,100,0.00,,,0.70,WUHU216DAVISWMX,2013-06-11 20:08:00,
2013-06-11 16:13:00,60.5,60.5,29.72,ENE,69,0.0,1.0,100,0.00,,,0.70,WUHU216DAVISWMX,2013-06-11 20:13:00,
2013-06-11 16:18:00,60.3,60.3,29.72,ENE,69,0.0,1.0,100,0.00,,,0.70,WUHU216DAVISWMX,2013-06-11 20:18:00,
2013-06-11 16:23:00,60.3,60.3,29.71,ENE,68,0.0,1.0,100,0.00,,,0.70,WUHU216DAVISWMX,2013-06-11 20:23:00,
2013-06-11 16:28:00,60.3,60.3,29.72,ENE,68,0.0,1.0,100,0.00,,,0.70,WUHU216DAVISWMX,2013-06-11 20:28:00,
2013-06-11 16:33:00,60.3,60.3,29.71,ENE,68,0.0,0.0,100,0.00,,,0.70,WUHU216DAVISWMX,2013-06-11 20:33:00,
2013-06-11 16:39:00,60.3,60.3,29.71,ENE,68,0.0,0.0,100,0.00,,,0.70,WUHU216DAVISWMX,2013-06-11 20:39:00,
2013-06-11 16:44:00,60.2,60.2,29.71,ENE,68,0.0,1.0,100,0.00,,,0.70,WUHU216DAVISWMX,2013-06-11 20:44:00,
2013-06-11 16:49:00,60.1,60.1,29.70,ENE,68,0.0,1.0,100,0.00,,,0.70,WUHU216DAVISWMX,2013-06-11 20:49:00,
2013-06-11 16:54:00,60.1,60.1,29.70,ENE,68,0.0,2.0,100,0.00,,,0.70,WUHU216DAVISWMX,2013-06-11 20:54:00,
2013-06-11 16:59:00,60.0,60.0,29.70,ENE,68,0.0,2.0,100,0.00,,,0.70,WUHU216DAVISWMX,2013-06-11 20:59:00,
2013-06-11 17:04:00,60.0,60.0,29.70,ENE,68,0.0,0.0,100,0.00,,,0.70,WUHU216DAVISWMX,2013-06-11 21:04:00,
2013-06-11 17:09:00,60.0,60.0,29.70,ENE,68,0.0,1.0,100,0.00,,,0.70,WUHU216DAVISWMX,2013-06-11 21:09:00,
2013-06-11 17:14:00,60.0,60.0,29.69,ENE,68,0.0,1.0,100,0.00,,,0.70,WUHU216DAVISWMX,2013-06-11 21:14:00,
2013-06-11 17:19:00,60.0,60.0,29.69,ENE,68,0.0,0.0,100,0.00,,,0.70,WUHU216DAVISWMX,2013-06-11 21:19:00,
2013-06-11 17:24:00,59.9,59.9,29.69,ENE,68,0.0,0.0,100,0.00,,,0.70,WUHU216DAVISWMX,2013-06-11 21:24:00,
2013-06-11 17:29:00,59.8,59.8,29.69,ENE,68,0.0,1.0,100,0.00,,,0.70,WUHU216DAVISWMX,2013-06-11 21:29:00,
2013-06-11 17:34:00,59.8,59.8,29.68,ENE,68,0.0,1.0,100,0.00,,,0.70,WUHU216DAVISWMX,2013-06-11 21:34:00,
2013-06-11 17:39:00,59.7,59.7,29.68,ENE,68,0.0,0.0,100,0.00,,,0.70,WUHU216DAVISWMX,2013-06-11 21:39:00,
2013-06-11 17:44:00,59.7,59.7,29.68,ENE,68,0.0,0.0,100,0.00,,,0.70,WUHU216DAVISWMX,2013-06-11 21:44:00,
2013-06-11 17:49:00,59.6,59.6,29.67,ENE,68,0.0,0.0,100,0.00,,,0.70,WUHU216DAVISWMX,2013-06-11 21:49:00,
2013-06-11 17:54:00,59.6,59.6,29.67,ENE,68,0.0,0.0,100,0.00,,,0.70,WUHU216DAVISWMX,2013-06-11 21:54:00,
2013-06-11 17:59:00,59.6,59.6,29.68,ENE,68,0.0,0.0,100,0.00,,,0.70,WUHU216DAVISWMX,2013-06-11 21:59:00,
2013-06-11 18:04:00,59.6,59.6,29.68,ENE,68,0.0,0.0,100,0.02,,,0.72,WUHU216DAVISWMX,2013-06-11 22:04:00,
2013-06-11 18:09:00,59.4,59.4,29.67,ENE,68,0.0,0.0,100,0.04,,,0.74,WUHU216DAVISWMX,2013-06-11 22:09:00,
2013-06-11 18:14:00,59.5,59.5,29.67,ENE,68,0.0,0.0,100,0.07,,,0.77,WUHU216DAVISWMX,2013-06-11 22:14:00,
2013-06-11 18:19:00,59.3,59.3,29.67,ENE,68,0.0,0.0,100,0.08,,,0.78,WUHU216DAVISWMX,2013-06-11 22:19:00,
2013-06-11 18:24:00,59.3,59.3,29.67,ENE,68,0.0,0.0,100,0.09,,,0.79,WUHU216DAVISWMX,2013-06-11 22:24:00,
2013-06-11 18:29:00,59.2,59.2,29.67,ENE,68,0.0,0.0,100,0.09,,,0.79,WUHU216DAVISWMX,2013-06-11 22:29:00,
2013-06-11 18:34:00,59.2,59.2,29.68,ENE,68,0.0,0.0,100,0.10,,,0.80,WUHU216DAVISWMX,2013-06-11 22:34:00,
2013-06-11 18:39:00,59.0,59.0,29.67,ENE,68,0.0,1.0,100,0.11,,,0.81,WUHU216DAVISWMX,2013-06-11 22:39:00,
2013-06-11 18:44:00,59.1,59.1,29.67,ENE,68,0.0,1.0,100,0.13,,,0.83,WUHU216DAVISWMX,2013-06-11 22:44:00,
2013-06-11 18:49:00,59.0,59.0,29.67,ENE,68,0.0,1.0,100,0.15,,,0.85,WUHU216DAVISWMX,2013-06-11 22:49:00,
2013-06-11 18:54:00,59.0,59.0,29.66,ENE,68,0.0,1.0,100,0.16,,,0.86,WUHU216DAVISWMX,2013-06-11 22:54:00,
2013-06-11 18:59:00,59.0,59.0,29.67,ENE,68,0.0,0.0,100,0.16,,,0.86,WUHU216DAVISWMX,2013-06-11 22:59:00,
2013-06-11 19:04:00,58.9,58.9,29.67,ENE,68,0.0,0.0,100,0.16,,,0.88,WUHU216DAVISWMX,2013-06-11 23:04:00,
2013-06-11 19:09:00,59.0,59.0,29.66,ENE,68,0.0,0.0,100,0.15,,,0.89,WUHU216DAVISWMX,2013-06-11 23:09:00,
2013-06-11 19:14:00,59.0,59.0,29.66,ENE,68,0.0,0.0,100,0.13,,,0.90,WUHU216DAVISWMX,2013-06-11 23:14:00,
2013-06-11 19:19:00,59.0,59.0,29.67,ENE,68,0.0,0.0,100,0.12,,,0.90,WUHU216DAVISWMX,2013-06-11 23:19:00,
2013-06-11 19:24:00,58.9,58.9,29.67,ENE,68,0.0,0.0,100,0.11,,,0.90,WUHU216DAVISWMX,2013-06-11 23:24:00,
2013-06-11 19:29:00,58.9,58.9,29.67,ENE,68,0.0,0.0,100,0.11,,,0.90,WUHU216DAVISWMX,2013-06-11 23:29:00,
2013-06-11 19:34:00,58.7,58.7,29.67,ENE,68,0.0,0.0,100,0.10,,,0.90,WUHU216DAVISWMX,2013-06-11 23:34:00,
2013-06-11 19:39:00,58.7,58.7,29.67,ENE,68,0.0,0.0,100,0.09,,,0.90,WUHU216DAVISWMX,2013-06-11 23:39:00,
2013-06-11 19:44:00,58.6,58.6,29.67,ENE,68,0.0,0.0,100,0.06,,,0.90,WUHU216DAVISWMX,2013-06-11 23:44:00,
2013-06-11 19:49:00,58.6,58.6,29.67,ENE,68,0.0,0.0,100,0.05,,,0.90,WUHU216DAVISWMX,2013-06-11 23:49:00,
2013-06-11 19:54:00,58.5,58.5,29.67,ENE,68,0.0,0.0,100,0.04,,,0.90,WUHU216DAVISWMX,2013-06-11 23:54:00,
2013-06-11 19:59:00,58.5,58.5,29.67,ENE,68,0.0,0.0,100,0.04,,,0.90,WUHU216DAVISWMX,2013-06-11 23:59:00,
2013-06-11 20:04:00,58.5,58.5,29.68,ENE,68,0.0,0.0,100,0.02,,,0.90,WUHU216DAVISWMX,2013-06-12 00:04:00,
2013-06-11 20:09:00,58.5,58.5,29.68,ENE,68,0.0,0.0,100,0.01,,,0.90,WUHU216DAVISWMX,2013-06-12 00:09:00,
2013-06-11 20:14:00,58.4,58.4,29.67,ENE,68,0.0,0.0,100,0.00,,,0.90,WUHU216DAVISWMX,2013-06-12 00:14:00,
2013-06-11 20:19:00,58.4,58.4,29.67,ENE,68,0.0,0.0,100,0.00,,,0.90,WUHU216DAVISWMX,2013-06-12 00:19:00,
2013-06-11 20:24:00,58.4,58.4,29.67,ENE,68,0.0,0.0,100,0.00,,,0.90,WUHU216DAVISWMX,2013-06-12 00:24:00,
2013-06-11 20:29:00,58.4,58.4,29.67,ENE,68,0.0,0.0,100,0.00,,,0.90,WUHU216DAVISWMX,2013-06-12 00:29:00,
2013-06-11 20:34:00,58.3,58.3,29.67,ENE,68,0.0,0.0,100,0.00,,,0.90,WUHU216DAVISWMX,2013-06-12 00:34:00,
2013-06-11 20:39:00,58.3,58.3,29.67,ENE,68,0.0,0.0,100,0.00,,,0.90,WUHU216DAVISWMX,2013-06-12 00:39:00,
2013-06-11 20:44:00,58.3,58.3,29.67,ENE,68,0.0,0.0,100,0.00,,,0.90,WUHU216DAVISWMX,2013-06-12 00:44:00,
2013-06-11 20:49:00,58.3,58.3,29.67,ENE,68,0.0,0.0,100,0.00,,,0.90,WUHU216DAVISWMX,2013-06-12 00:49:00,
2013-06-11 20:54:00,58.2,58.2,29.67,ENE,68,0.0,0.0,100,0.00,,,0.90,WUHU216DAVISWMX,2013-06-12 00:54:00,
2013-06-11 20:59:00,58.2,58.2,29.67,ENE,68,0.0,0.0,100,0.00,,,0.90,WUHU216DAVISWMX,2013-06-12 00:59:00,
2013-06-11 21:04:00,58.1,58.1,29.67,ENE,68,0.0,0.0,100,0.00,,,0.90,WUHU216DAVISWMX,2013-06-12 01:04:00,
2013-06-11 21:09:00,58.1,58.1,29.67,ENE,68,0.0,0.0,100,0.00,,,0.90,WUHU216DAVISWMX,2013-06-12 01:09:00,
2013-06-11 21:14:00,58.1,58.1,29.68,ENE,68,0.0,0.0,100,0.00,,,0.90,WUHU216DAVISWMX,2013-06-12 01:14:00,
2013-06-11 21:19:00,58.0,58.0,29.68,ENE,68,0.0,0.0,100,0.00,,,0.90,WUHU216DAVISWMX,2013-06-12 01:19:00,
2013-06-11 21:24:00,58.0,58.0,29.67,ENE,68,0.0,0.0,100,0.00,,,0.90,WUHU216DAVISWMX,2013-06-12 01:24:00,
2013-06-11 21:29:00,58.0,58.0,29.68,ENE,68,0.0,0.0,100,0.00,,,0.90,WUHU216DAVISWMX,2013-06-12 01:29:00,
2013-06-11 21:34:00,58.0,58.0,29.68,ENE,68,0.0,0.0,100,0.00,,,0.90,WUHU216DAVISWMX,2013-06-12 01:34:00,
2013-06-11 21:39:00,57.9,57.9,29.68,ENE,68,0.0,0.0,100,0.00,,,0.90,WUHU216DAVISWMX,2013-06-12 01:39:00,
2013-06-11 21:44:00,57.9,57.9,29.68,ENE,68,0.0,0.0,100,0.01,,,0.91,WUHU216DAVISWMX,2013-06-12 01:44:00,
2013-06-11 21:49:00,58.0,58.0,29.68,ENE,68,0.0,0.0,100,0.01,,,0.91,WUHU216DAVISWMX,2013-06-12 01:49:00,
2013-06-11 21:54:00,57.9,57.9,29.68,ENE,68,0.0,0.0,100,0.01,,,0.91,WUHU216DAVISWMX,2013-06-12 01:54:00,
2013-06-11 21:59:00,57.9,57.9,29.68,ENE,68,0.0,0.0,100,0.01,,,0.91,WUHU216DAVISWMX,2013-06-12 01:59:00,
2013-06-11 22:04:00,57.8,57.8,29.68,ENE,68,0.0,0.0,100,0.01,,,0.91,WUHU216DAVISWMX,2013-06-12 02:04:00,
2013-06-11 22:09:00,57.8,57.8,29.68,ENE,68,0.0,0.0,100,0.01,,,0.91,WUHU216DAVISWMX,2013-06-12 02:09:00,
2013-06-11 22:14:00,57.8,57.8,29.68,ENE,68,0.0,0.0,100,0.01,,,0.91,WUHU216DAVISWMX,2013-06-12 02:14:00,
2013-06-11 22:19:00,57.7,57.7,29.67,ENE,68,0.0,0.0,100,0.01,,,0.91,WUHU216DAVISWMX,2013-06-12 02:19:00,
2013-06-11 22:24:00,57.8,57.8,29.67,ENE,68,0.0,0.0,100,0.01,,,0.91,WUHU216DAVISWMX,2013-06-12 02:24:00,
2013-06-11 22:29:00,57.9,57.9,29.68,ENE,68,0.0,0.0,100,0.01,,,0.91,WUHU216DAVISWMX,2013-06-12 02:29:00,
2013-06-11 22:34:00,57.8,57.8,29.67,ENE,68,0.0,0.0,100,0.01,,,0.91,WUHU216DAVISWMX,2013-06-12 02:34:00,
2013-06-11 22:39:00,57.9,57.9,29.67,ENE,68,0.0,0.0,100,0.01,,,0.91,WUHU216DAVISWMX,2013-06-12 02:39:00,
2013-06-11 22:44:00,57.8,57.8,29.67,ENE,68,0.0,0.0,100,0.00,,,0.91,WUHU216DAVISWMX,2013-06-12 02:44:00,
2013-06-11 22:49:00,57.7,57.7,29.67,ENE,68,0.0,0.0,100,0.00,,,0.91,WUHU216DAVISWMX,2013-06-12 02:49:00,
2013-06-11 22:54:00,57.7,57.7,29.67,ENE,68,0.0,0.0,100,0.00,,,0.91,WUHU216DAVISWMX,2013-06-12 02:54:00,
2013-06-11 22:59:00,57.8,57.8,29.67,ENE,68,0.0,0.0,100,0.00,,,0.91,WUHU216DAVISWMX,2013-06-12 02:59:00,
2013-06-11 23:04:00,57.6,57.6,29.67,ENE,68,0.0,0.0,100,0.00,,,0.91,WUHU216DAVISWMX,2013-06-12 03:04:00,
2013-06-11 23:09:00,57.6,57.6,29.67,ENE,68,0.0,0.0,100,0.01,,,0.92,WUHU216DAVISWMX,2013-06-12 03:09:00,
2013-06-11 23:14:00,57.6,57.6,29.67,ENE,68,0.0,0.0,100,0.01,,,0.92,WUHU216DAVISWMX,2013-06-12 03:14:00,
2013-06-11 23:19:00,57.5,57.5,29.67,ENE,68,0.0,0.0,100,0.02,,,0.93,WUHU216DAVISWMX,2013-06-12 03:19:00,
2013-06-11 23:24:00,57.6,57.6,29.66,ENE,68,0.0,0.0,100,0.02,,,0.93,WUHU216DAVISWMX,2013-06-12 03:24:00,
2013-06-11 23:29:00,57.5,57.5,29.66,ENE,68,0.0,0.0,100,0.03,,,0.94,WUHU216DAVISWMX,2013-06-12 03:29:00,
2013-06-11 23:34:00,57.5,57.5,29.66,ENE,68,0.0,0.0,100,0.03,,,0.94,WUHU216DAVISWMX,2013-06-12 03:34:00,
2013-06-11 23:39:00,57.5,57.5,29.66,ENE,68,0.0,0.0,100,0.03,,,0.94,WUHU216DAVISWMX,2013-06-12 03:39:00,
2013-06-11 23:44:00,57.4,57.4,29.66,ENE,68,0.0,0.0,100,0.04,,,0.95,WUHU216DAVISWMX,2013-06-12 03:44:00,
2013-06-11 23:49:00,57.6,57.6,29.66,ENE,68,0.0,0.0,100,0.04,,,0.95,WUHU216DAVISWMX,2013-06-12 03:49:00,
2013-06-11 23:54:00,57.5,57.5,29.66,ENE,68,0.0,0.0,100,0.04,,,0.95,WUHU216DAVISWMX,2013-06-12 03:54:00,
2013-06-11 23:59:00,57.5,57.5,29.66,ENE,68,0.0,0.0,100,0.04,,,0.95,WUHU216DAVISWMX,2013-06-12 03:59:00,